Time;durP1;ratioP1;P1;durP2;ratioP2;P2;SDS_P1;SDS_P2;PMS_P1;PMS_P2;Temp;Humidity;BMP_temperature;BMP_pressure;BME280_temperature;BME280_humidity;BME280_pressure;Samples;Min_cycle;Max_cycle;Signal;HPM_P1;HPM_P2
2022/12/29 00:01:26;;;;;;;4.07;2.17;;;11.30;99.90;;;;;;5045944;28;20025;-61
2022/12/29 00:03:52;;;;;;;3.70;2.58;;;11.30;99.90;;;;;;5046593;28;20029;-61
2022/12/29 00:06:17;;;;;;;2.97;1.90;;;11.30;99.90;;;;;;5013383;28;20485;-61
2022/12/29 00:08:43;;;;;;;2.40;1.80;;;11.30;99.90;;;;;;5048367;28;20100;-61
2022/12/29 00:11:10;;;;;;;4.90;1.90;;;11.30;99.90;;;;;;5048722;28;20048;-61
2022/12/29 00:16:20;;;;;;;2.95;1.80;;;11.30;99.90;;;;;;5046091;28;20118;-61
2022/12/29 00:18:46;;;;;;;3.83;1.80;;;11.30;99.90;;;;;;5048851;28;20068;-61
2022/12/29 00:35:12;;;;;;;3.03;1.67;;;11.30;99.90;;;;;;5042314;28;20040;-61
2022/12/29 00:45:53;;;;;;;2.70;1.52;;;11.20;99.90;;;;;;5044976;28;20086;-61
2022/12/29 00:49:29;;;;;;;3.05;1.20;;;11.20;99.90;;;;;;5047882;28;20445;-61
2022/12/29 00:51:04;;;;;;;2.65;1.00;;;11.20;99.90;;;;;;5044482;28;20032;-61
2022/12/29 00:53:30;;;;;;;2.40;0.90;;;11.20;99.90;;;;;;5047523;28;20037;-61
2022/12/29 00:55:55;;;;;;;1.35;0.60;;;11.20;99.90;;;;;;5047568;28;20477;-61
2022/12/29 00:58:21;;;;;;;1.60;0.70;;;11.30;99.90;;;;;;5045236;28;20035;-61
2022/12/29 01:00:46;;;;;;;2.20;0.60;;;11.30;99.90;;;;;;5016479;28;20041;-61
2022/12/29 01:03:12;;;;;;;1.30;0.70;;;11.30;99.90;;;;;;5044919;28;20033;-61
2022/12/29 01:05:37;;;;;;;1.63;0.50;;;11.30;99.90;;;;;;5047395;28;20044;-61
2022/12/29 01:08:03;;;;;;;1.40;0.50;;;11.30;99.90;;;;;;5044833;28;20055;-61
2022/12/29 01:10:29;;;;;;;1.42;0.50;;;11.20;99.90;;;;;;5041561;28;20025;-61
2022/12/29 01:12:54;;;;;;;1.20;0.50;;;11.20;99.90;;;;;;5044404;28;20028;-61
2022/12/29 01:15:20;;;;;;;1.17;0.40;;;11.20;99.90;;;;;;5044625;28;20092;-61
2022/12/29 01:17:45;;;;;;;1.20;0.50;;;11.10;99.90;;;;;;5044712;28;20131;-61
2022/12/29 01:20:11;;;;;;;2.45;0.60;;;11.10;99.90;;;;;;5047561;28;20021;-61
2022/12/29 01:22:37;;;;;;;3.08;0.60;;;11.10;99.90;;;;;;5047281;28;20067;-61
2022/12/29 01:25:04;;;;;;;1.08;0.50;;;11.00;99.90;;;;;;5017701;28;20026;-61
2022/12/29 01:27:29;;;;;;;1.75;0.75;;;11.00;99.90;;;;;;5045470;28;20039;-61
2022/12/29 01:29:55;;;;;;;2.03;0.60;;;11.00;99.90;;;;;;5046920;28;20112;-61
2022/12/29 01:32:20;;;;;;;2.80;1.00;;;10.90;99.90;;;;;;5044677;28;20526;-61
2022/12/29 01:34:46;;;;;;;1.45;0.65;;;10.90;99.90;;;;;;5040222;28;20400;-61
2022/12/29 01:37:12;;;;;;;1.70;0.80;;;10.90;99.90;;;;;;5046454;28;20543;-61
2022/12/29 01:39:37;;;;;;;1.58;0.95;;;10.90;99.90;;;;;;5044288;28;20025;-61
2022/12/29 01:42:03;;;;;;;1.48;0.98;;;10.90;99.90;;;;;;5045121;28;20029;-61
2022/12/29 01:44:50;;;;;;;2.33;0.80;;;10.90;99.90;;;;;;5020364;28;20028;-61
2022/12/29 01:47:30;;;;;;;1.40;1.10;;;10.90;99.90;;;;;;5046522;28;20021;-61
2022/12/29 01:49:58;;;;;;;2.15;1.13;;;10.90;99.90;;;;;;5046863;28;20108;-61
2022/12/29 01:52:29;;;;;;;1.25;0.88;;;11.00;99.90;;;;;;5019313;28;20112;-61
2022/12/29 01:54:56;;;;;;;4.30;1.10;;;11.00;99.90;;;;;;5044137;28;20064;-61
2022/12/29 01:57:29;;;;;;;1.38;1.15;;;11.00;99.90;;;;;;5044429;28;20451;-61
2022/12/29 02:00:11;;;;;;;1.98;1.23;;;11.10;99.90;;;;;;5046317;28;20483;-61
2022/12/29 02:02:37;;;;;;;1.55;0.90;;;11.10;99.90;;;;;;5044048;28;20472;-61
2022/12/29 02:05:15;;;;;;;1.98;1.23;;;11.10;99.90;;;;;;5046700;28;20033;-61
2022/12/29 02:07:42;;;;;;;2.03;0.82;;;11.20;99.90;;;;;;5045779;28;20018;-61
2022/12/29 02:10:07;;;;;;;2.22;0.70;;;11.20;99.90;;;;;;5045886;28;20029;-61
2022/12/29 02:12:33;;;;;;;1.83;0.70;;;11.30;99.90;;;;;;5047818;28;20396;-61
2022/12/29 02:15:01;;;;;;;1.65;0.70;;;11.30;99.90;;;;;;5047707;28;20439;-61
2022/12/29 02:17:57;;;;;;;2.10;0.70;;;11.40;99.90;;;;;;5047886;28;20033;-61
2022/12/29 02:20:44;;;;;;;1.08;0.50;;;11.40;99.90;;;;;;5045782;28;20036;-61
2022/12/29 02:23:47;;;;;;;2.47;1.00;;;11.50;99.90;;;;;;5048861;28;20127;-61
2022/12/29 02:26:34;;;;;;;1.25;0.50;;;11.50;99.90;;;;;;5047428;28;20388;-61
2022/12/29 02:29:05;;;;;;;2.92;0.60;;;11.60;99.90;;;;;;5048119;28;20025;-61
2022/12/29 02:31:50;;;;;;;2.60;0.50;;;11.60;99.90;;;;;;5017726;28;20543;-61
2022/12/29 02:34:31;;;;;;;1.85;0.45;;;11.70;99.90;;;;;;5050511;28;20021;-61
2022/12/29 02:37:21;;;;;;;2.65;0.63;;;11.80;99.90;;;;;;5047179;28;20460;-61
2022/12/29 02:40:07;;;;;;;1.88;0.40;;;11.80;99.90;;;;;;5059576;28;20125;-61
2022/12/29 02:42:42;;;;;;;2.38;0.52;;;11.80;99.90;;;;;;5047025;28;20044;-61
2022/12/29 02:45:15;;;;;;;2.38;0.45;;;11.80;99.90;;;;;;5050112;28;20017;-61
2022/12/29 02:47:40;;;;;;;3.95;0.55;;;11.80;99.90;;;;;;5060229;28;20025;-61
2022/12/29 02:50:20;;;;;;;2.47;0.75;;;11.90;99.90;;;;;;5050107;28;20027;-61
2022/12/29 02:52:58;;;;;;;2.67;0.63;;;11.90;99.90;;;;;;5045716;28;20029;-61
2022/12/29 02:55:23;;;;;;;0.90;0.30;;;11.90;99.90;;;;;;5048162;28;20554;-61
2022/12/29 02:58:04;;;;;;;3.05;0.75;;;11.90;99.90;;;;;;5049883;28;20033;-61
2022/12/29 03:00:30;;;;;;;3.15;0.50;;;12.00;99.90;;;;;;5049937;28;20041;-61
2022/12/29 03:03:27;;;;;;;2.42;0.50;;;12.00;99.90;;;;;;5049847;28;20028;-61
2022/12/29 03:06:26;;;;;;;3.70;0.43;;;12.00;99.90;;;;;;5047735;28;20063;-62
2022/12/29 03:09:02;;;;;;;1.65;0.40;;;12.00;99.90;;;;;;5048883;28;20048;-61
2022/12/29 03:17:34;;;;;;;3.28;0.60;;;12.00;99.90;;;;;;5046042;28;20094;-61
2022/12/29 03:20:08;;;;;;;3.70;0.40;;;12.00;99.90;;;;;;5049399;28;20546;-61
2022/12/29 03:22:41;;;;;;;3.30;0.60;;;12.00;99.90;;;;;;5049585;28;20082;-61
2022/12/29 03:25:14;;;;;;;4.10;1.30;;;12.00;99.90;;;;;;5045906;28;20136;-61
2022/12/29 03:27:55;;;;;;;2.78;0.40;;;12.00;99.90;;;;;;5044607;28;20108;-61
2022/12/29 03:30:21;;;;;;;2.50;0.50;;;12.00;99.90;;;;;;5046707;28;20056;-61
2022/12/29 03:32:51;;;;;;;1.80;0.30;;;11.90;99.90;;;;;;5047495;28;20029;-61
2022/12/29 03:35:18;;;;;;;;;;;11.90;99.90;;;;;;5051038;28;20020;-61
2022/12/29 03:37:59;;;;;;;1.42;0.38;;;11.90;99.90;;;;;;5057201;28;19912;-61
2022/12/29 03:40:27;;;;;;;2.47;0.30;;;11.90;99.90;;;;;;5046978;28;20048;-61
2022/12/29 03:42:53;;;;;;;2.33;0.47;;;11.80;99.90;;;;;;5064165;28;20025;-61
2022/12/29 03:45:19;;;;;;;1.73;0.43;;;11.80;99.90;;;;;;5045435;28;20151;-61
2022/12/29 03:47:45;;;;;;;3.92;0.55;;;11.80;99.90;;;;;;5048593;28;20504;-61
2022/12/29 03:50:12;;;;;;;3.88;0.40;;;11.90;99.90;;;;;;5049004;28;20039;-61
2022/12/29 03:52:38;;;;;;;1.88;0.47;;;11.80;99.90;;;;;;5027518;28;20145;-61
2022/12/29 03:55:04;;;;;;;1.25;0.30;;;11.80;99.90;;;;;;5043965;28;20567;-61
2022/12/29 03:57:29;;;;;;;4.93;0.45;;;11.80;99.90;;;;;;5048650;28;20485;-61
2022/12/29 03:59:55;;;;;;;1.52;0.30;;;11.80;99.90;;;;;;5045954;28;20095;-61
2022/12/29 04:02:21;;;;;;;1.95;1.08;;;11.70;99.90;;;;;;5046139;28;20035;-61
2022/12/29 04:04:46;;;;;;;3.80;0.50;;;11.80;99.90;;;;;;5045814;28;20031;-61
2022/12/29 04:07:12;;;;;;;2.13;0.40;;;11.70;99.90;;;;;;5046294;28;20121;-61
2022/12/29 04:09:37;;;;;;;1.58;0.45;;;11.80;99.90;;;;;;5048582;28;20033;-61
2022/12/29 04:12:03;;;;;;;3.85;0.55;;;11.70;99.90;;;;;;5046293;28;20037;-61
2022/12/29 04:14:28;;;;;;;1.30;0.40;;;11.70;99.90;;;;;;5046062;28;20029;-61
2022/12/29 04:16:54;;;;;;;1.17;0.30;;;11.70;99.90;;;;;;5043203;28;20052;-61
2022/12/29 04:19:19;;;;;;;2.28;0.50;;;11.70;99.90;;;;;;5043901;28;20029;-61
2022/12/29 04:21:45;;;;;;;3.90;0.60;;;11.70;99.90;;;;;;5043940;28;20016;-61
2022/12/29 04:24:11;;;;;;;3.88;0.50;;;11.70;99.90;;;;;;5045914;28;20027;-61
2022/12/29 04:26:36;;;;;;;2.78;0.50;;;11.70;99.90;;;;;;5047538;28;20024;-61
2022/12/29 04:29:02;;;;;;;3.70;0.47;;;11.70;99.90;;;;;;5024574;28;20048;-61
2022/12/29 04:31:27;;;;;;;4.03;0.85;;;11.60;99.90;;;;;;5063801;28;20063;-61
2022/12/29 04:33:53;;;;;;;3.17;0.43;;;11.60;99.90;;;;;;5045485;28;20056;-61
2022/12/29 04:36:18;;;;;;;3.72;0.50;;;11.60;99.90;;;;;;5047169;28;20507;-61
2022/12/29 04:38:44;;;;;;;1.92;0.70;;;11.60;99.90;;;;;;5043558;28;20057;-61
2022/12/29 04:41:09;;;;;;;6.47;0.80;;;11.50;99.90;;;;;;5047694;28;20048;-61
2022/12/29 04:43:35;;;;;;;2.88;0.30;;;11.50;99.90;;;;;;5045341;28;20063;-61
2022/12/29 04:46:00;;;;;;;4.40;0.88;;;11.50;99.90;;;;;;5045293;28;20064;-61
2022/12/29 04:48:26;;;;;;;7.55;0.70;;;11.50;99.90;;;;;;5047730;28;20060;-61
2022/12/29 04:50:51;;;;;;;5.03;0.63;;;11.50;99.90;;;;;;5048155;28;20102;-61
2022/12/29 04:53:17;;;;;;;3.95;0.80;;;11.40;99.90;;;;;;5044914;28;20523;-61
2022/12/29 04:55:43;;;;;;;4.57;0.50;;;11.40;99.90;;;;;;5044904;28;20140;-61
2022/12/29 04:58:08;;;;;;;3.15;0.52;;;11.20;99.90;;;;;;5045140;28;20025;-61
2022/12/29 05:00:34;;;;;;;0.98;0.40;;;11.00;99.90;;;;;;5047728;28;20123;-61
2022/12/29 05:03:00;;;;;;;4.75;0.80;;;10.70;99.90;;;;;;5041275;28;20021;-61
2022/12/29 05:05:26;;;;;;;2.92;0.40;;;10.50;99.90;;;;;;5045433;28;20014;-61
2022/12/29 05:07:51;;;;;;;3.10;0.80;;;10.40;99.90;;;;;;5047581;28;20389;-61
2022/12/29 05:10:17;;;;;;;3.30;1.10;;;10.30;99.90;;;;;;5021980;28;20474;-61
2022/12/29 05:12:43;;;;;;;2.63;0.50;;;10.30;99.90;;;;;;5047344;28;20087;-61
2022/12/29 05:15:10;;;;;;;4.68;0.60;;;10.20;99.90;;;;;;5048122;28;20017;-61
2022/12/29 05:17:36;;;;;;;4.22;0.68;;;10.10;99.90;;;;;;5047364;28;20505;-61
2022/12/29 05:20:03;;;;;;;2.65;0.55;;;10.10;99.90;;;;;;5045183;28;20020;-61
2022/12/29 05:22:28;;;;;;;2.05;0.50;;;10.00;99.90;;;;;;5047721;28;20017;-61
2022/12/29 05:24:54;;;;;;;3.35;0.70;;;10.00;99.90;;;;;;5047667;28;20024;-61
2022/12/29 05:27:19;;;;;;;4.47;0.70;;;10.00;99.90;;;;;;5062890;28;20039;-61
2022/12/29 05:29:45;;;;;;;7.10;1.70;;;9.90;99.90;;;;;;5047594;28;20033;-61
2022/12/29 05:32:10;;;;;;;4.60;0.65;;;9.90;99.90;;;;;;5044989;28;20032;-61
2022/12/29 05:34:35;;;;;;;4.60;1.50;;;9.90;99.90;;;;;;5047376;28;20500;-61
2022/12/29 05:37:02;;;;;;;4.93;0.70;;;9.90;99.90;;;;;;5039419;28;20033;-61
2022/12/29 05:39:28;;;;;;;7.57;0.90;;;9.90;99.90;;;;;;5040711;28;20069;-61
2022/12/29 05:41:53;;;;;;;6.20;1.08;;;9.90;99.90;;;;;;5044258;28;20010;-61
2022/12/29 05:44:19;;;;;;;3.72;0.90;;;9.90;99.90;;;;;;5045677;28;20174;-61
2022/12/29 05:46:44;;;;;;;4.68;0.80;;;9.90;99.90;;;;;;5047199;28;20021;-61
2022/12/29 05:49:10;;;;;;;4.15;0.70;;;9.90;99.90;;;;;;5048370;28;20037;-61
2022/12/29 05:51:36;;;;;;;9.52;1.73;;;9.90;99.90;;;;;;5048949;28;20033;-61
2022/12/29 05:54:01;;;;;;;9.77;1.00;;;9.90;99.90;;;;;;5048080;28;20036;-61
2022/12/29 05:56:27;;;;;;;6.20;2.05;;;9.90;99.90;;;;;;5043636;28;20070;-61
2022/12/29 05:58:52;;;;;;;8.60;0.95;;;9.90;99.90;;;;;;5045527;28;20033;-60
2022/12/29 06:01:17;;;;;;;6.40;1.05;;;10.00;99.90;;;;;;5049055;28;20028;-61
2022/12/29 06:03:43;;;;;;;6.57;0.57;;;10.00;99.90;;;;;;5050262;28;20100;-61
2022/12/29 06:06:10;;;;;;;9.88;1.10;;;10.00;99.90;;;;;;5028626;28;20469;-61
2022/12/29 06:08:35;;;;;;;9.02;0.88;;;10.00;99.90;;;;;;5051473;28;20032;-61
2022/12/29 06:11:00;;;;;;;7.20;0.98;;;10.00;99.90;;;;;;5048221;28;20029;-61
2022/12/29 06:13:27;;;;;;;5.28;0.93;;;10.00;99.90;;;;;;5049724;28;20040;-61
2022/12/29 06:15:52;;;;;;;8.55;0.93;;;10.00;99.90;;;;;;5044008;28;20028;-61
2022/12/29 06:18:18;;;;;;;5.40;0.90;;;10.00;99.90;;;;;;5051005;28;20029;-61
2022/12/29 06:20:44;;;;;;;9.80;0.95;;;10.10;99.90;;;;;;5050843;28;20095;-61
2022/12/29 06:23:09;;;;;;;7.75;0.93;;;10.10;99.90;;;;;;5050572;28;20029;-61
2022/12/29 06:25:35;;;;;;;5.97;0.82;;;10.00;99.90;;;;;;5050513;28;20013;-61
2022/12/29 06:28:02;;;;;;;8.43;0.98;;;10.10;99.90;;;;;;5038781;28;20600;-61
2022/12/29 06:30:27;;;;;;;8.88;0.70;;;10.10;99.90;;;;;;5073551;28;20039;-61
2022/12/29 06:32:54;;;;;;;7.55;0.75;;;10.10;99.90;;;;;;5053469;28;20017;-61
2022/12/29 06:35:20;;;;;;;8.90;1.85;;;10.20;99.90;;;;;;5051493;28;20112;-61
2022/12/29 06:37:45;;;;;;;8.20;1.13;;;10.20;99.90;;;;;;5051622;28;20495;-61
2022/12/29 06:40:11;;;;;;;4.95;1.05;;;10.20;99.90;;;;;;5054156;28;20021;-61
2022/12/29 06:42:37;;;;;;;4.07;0.60;;;10.30;99.90;;;;;;5053106;28;20037;-61
2022/12/29 06:45:03;;;;;;;5.07;0.65;;;10.40;99.90;;;;;;5047167;28;20029;-61
2022/12/29 06:47:29;;;;;;;2.88;0.50;;;10.40;99.90;;;;;;5052522;28;20381;-61
2022/12/29 06:49:54;;;;;;;5.15;0.60;;;10.50;99.90;;;;;;5053050;28;20447;-61
2022/12/29 06:52:20;;;;;;;4.32;0.70;;;10.50;99.90;;;;;;5053121;28;20459;-61
2022/12/29 06:54:45;;;;;;;3.67;0.80;;;10.50;99.90;;;;;;5052519;28;20032;-61
2022/12/29 06:57:11;;;;;;;5.80;1.00;;;10.50;99.90;;;;;;5054069;28;20438;-61
2022/12/29 06:59:36;;;;;;;3.53;0.70;;;10.50;99.90;;;;;;5052884;28;20566;-61
2022/12/29 07:02:02;;;;;;;2.30;0.50;;;10.60;99.90;;;;;;5053817;28;20282;-61
2022/12/29 07:04:28;;;;;;;8.50;0.82;;;10.60;99.90;;;;;;5053507;28;20029;-61
2022/12/29 07:06:54;;;;;;;5.63;0.52;;;10.60;99.90;;;;;;5035524;28;20029;-61
2022/12/29 07:09:19;;;;;;;6.13;1.77;;;10.60;99.90;;;;;;5053392;28;20029;-61
2022/12/29 07:11:45;;;;;;;7.15;0.75;;;10.70;99.90;;;;;;5041270;28;20029;-61
2022/12/29 07:14:11;;;;;;;4.18;0.70;;;10.60;99.90;;;;;;5053361;28;20027;-61
2022/12/29 07:16:36;;;;;;;4.93;0.82;;;10.70;99.90;;;;;;5053327;28;20033;-61
2022/12/29 07:19:02;;;;;;;3.58;0.50;;;10.70;99.90;;;;;;5053742;28;20021;-61
2022/12/29 07:21:28;;;;;;;4.15;0.80;;;10.70;99.90;;;;;;5053146;28;20048;-61
2022/12/29 07:23:54;;;;;;;5.43;1.08;;;10.70;99.90;;;;;;5053661;28;20524;-61
2022/12/29 07:26:19;;;;;;;3.75;0.75;;;10.70;99.90;;;;;;5053420;28;20025;-61
2022/12/29 07:28:45;;;;;;;4.53;0.60;;;10.70;99.90;;;;;;5053600;28;20071;-61
2022/12/29 07:31:18;;;;;;;2.53;0.50;;;10.70;99.90;;;;;;5053209;28;20029;-61
2022/12/29 07:33:45;;;;;;;6.80;1.00;;;10.80;99.90;;;;;;5035692;28;20503;-61
2022/12/29 07:36:12;;;;;;;6.72;1.10;;;10.70;99.90;;;;;;5052974;28;20044;-61
2022/12/29 07:38:38;;;;;;;7.38;1.02;;;10.80;99.90;;;;;;5053428;28;20017;-61
2022/12/29 07:41:04;;;;;;;8.55;1.15;;;10.80;99.90;;;;;;5052795;28;20017;-62
2022/12/29 07:43:30;;;;;;;5.40;1.00;;;10.80;99.90;;;;;;5052337;28;20017;-61
2022/12/29 07:45:55;;;;;;;4.88;0.70;;;10.90;99.90;;;;;;5051247;28;20029;-61
2022/12/29 07:48:21;;;;;;;9.77;1.15;;;10.90;99.90;;;;;;5049614;28;20082;-61
2022/12/29 07:50:47;;;;;;;7.63;1.13;;;10.80;99.90;;;;;;5032285;28;20431;-61
2022/12/29 07:53:13;;;;;;;6.47;1.10;;;10.90;99.90;;;;;;5049400;28;20029;-61
2022/12/29 07:55:38;;;;;;;7.63;1.00;;;10.80;99.90;;;;;;5034410;28;20132;-61
2022/12/29 07:58:04;;;;;;;7.47;1.30;;;10.90;99.90;;;;;;5052416;28;20021;-61
2022/12/29 08:00:29;;;;;;;6.05;0.65;;;10.80;99.90;;;;;;5052773;28;20048;-61
2022/12/29 08:02:55;;;;;;;6.53;0.90;;;10.70;99.90;;;;;;5052410;28;20067;-61
2022/12/29 08:05:20;;;;;;;9.30;0.90;;;10.70;99.90;;;;;;5052482;28;20025;-61
2022/12/29 08:07:46;;;;;;;6.82;0.80;;;10.80;99.90;;;;;;5051179;28;20017;-61
2022/12/29 08:10:13;;;;;;;9.00;1.23;;;10.80;99.90;;;;;;5049716;28;20028;-61
2022/12/29 08:12:40;;;;;;;3.58;0.85;;;10.70;99.90;;;;;;5048801;28;20025;-61
2022/12/29 08:15:08;;;;;;;5.60;1.00;;;10.70;99.90;;;;;;5050877;28;20503;-61
2022/12/29 08:17:33;;;;;;;7.40;1.30;;;10.70;99.90;;;;;;5048185;28;20064;-61
2022/12/29 08:19:59;;;;;;;7.07;0.80;;;10.70;99.90;;;;;;5030068;28;20436;-61
2022/12/29 08:22:24;;;;;;;6.65;1.20;;;10.70;99.90;;;;;;5049675;28;20547;-61
2022/12/29 08:24:51;;;;;;;8.15;1.70;;;10.70;99.90;;;;;;5065010;28;20025;-61
2022/12/29 08:27:17;;;;;;;6.70;0.90;;;10.70;99.90;;;;;;5032846;28;20065;-61
2022/12/29 08:29:42;;;;;;;7.57;1.00;;;10.70;99.90;;;;;;5050652;28;20057;-61
2022/12/29 08:32:08;;;;;;;6.50;1.33;;;10.70;99.90;;;;;;5032384;28;20020;-61
2022/12/29 08:34:33;;;;;;;8.65;1.10;;;10.70;99.90;;;;;;5065529;28;20035;-61
2022/12/29 08:36:59;;;;;;;6.40;1.02;;;10.70;99.90;;;;;;5048436;28;20463;-61
2022/12/29 08:39:24;;;;;;;7.50;1.10;;;10.70;99.90;;;;;;5048316;28;20028;-61
2022/12/29 08:41:50;;;;;;;5.72;1.35;;;10.70;99.90;;;;;;5049801;28;20017;-61
2022/12/29 08:44:16;;;;;;;6.45;1.92;;;10.70;99.90;;;;;;5050027;28;20047;-61
2022/12/29 08:46:41;;;;;;;6.47;1.02;;;10.70;99.90;;;;;;5049914;28;20033;-61
2022/12/29 08:49:07;;;;;;;7.38;1.20;;;10.80;99.90;;;;;;5049906;28;20048;-61
2022/12/29 08:51:32;;;;;;;10.52;1.38;;;10.80;99.90;;;;;;5050596;28;20021;-61
2022/12/29 08:53:59;;;;;;;10.88;1.88;;;10.80;99.90;;;;;;5039789;28;20033;-61
2022/12/29 08:56:24;;;;;;;10.73;1.73;;;10.80;99.90;;;;;;5051236;28;20033;-61
2022/12/29 08:58:52;;;;;;;7.53;1.35;;;10.80;99.90;;;;;;5039676;28;20044;-61
2022/12/29 09:01:17;;;;;;;10.45;1.55;;;10.80;99.90;;;;;;5051087;28;20044;-61
2022/12/29 09:03:43;;;;;;;10.43;1.42;;;10.80;99.90;;;;;;5039211;28;20025;-61
2022/12/29 09:06:09;;;;;;;6.55;0.90;;;10.80;99.90;;;;;;5051310;28;20021;-61
2022/12/29 09:08:35;;;;;;;7.07;1.33;;;10.80;99.90;;;;;;5038881;28;20029;-61
2022/12/29 09:11:13;;;;;;;8.90;0.90;;;10.90;99.90;;;;;;5050984;28;20053;-61
2022/12/29 09:13:39;;;;;;;7.13;0.90;;;10.80;99.90;;;;;;5050849;28;20021;-61
2022/12/29 09:16:04;;;;;;;10.60;1.38;;;10.60;99.90;;;;;;5051278;28;20013;-61
2022/12/29 09:18:30;;;;;;;9.52;1.17;;;10.40;99.90;;;;;;5050597;28;20025;-61
2022/12/29 09:21:01;;;;;;;9.27;1.27;;;10.30;99.90;;;;;;5050474;28;20017;-61
2022/12/29 09:23:27;;;;;;;7.40;1.63;;;10.30;99.90;;;;;;5049244;28;20060;-61
2022/12/29 09:25:54;;;;;;;8.35;1.13;;;10.20;99.90;;;;;;5049711;28;20029;-62
2022/12/29 09:28:20;;;;;;;6.45;1.48;;;10.30;99.90;;;;;;5049872;28;20057;-61
2022/12/29 09:30:46;;;;;;;6.80;1.08;;;10.30;99.90;;;;;;5049504;28;20027;-61
2022/12/29 09:33:12;;;;;;;9.00;1.67;;;10.30;99.90;;;;;;5032028;28;20422;-61
2022/12/29 09:35:42;;;;;;;8.80;1.27;;;10.30;99.90;;;;;;5051022;28;20029;-61
2022/12/29 09:38:07;;;;;;;6.55;0.90;;;10.30;99.90;;;;;;5050735;28;20033;-61
2022/12/29 09:40:33;;;;;;;8.60;1.60;;;10.30;99.90;;;;;;5038433;28;20070;-61
2022/12/29 09:43:01;;;;;;;5.63;0.88;;;10.30;99.90;;;;;;5050960;28;20017;-61
2022/12/29 09:45:47;;;;;;;8.90;1.40;;;10.30;99.90;;;;;;5051091;28;20029;-61
2022/12/29 09:48:31;;;;;;;4.80;0.85;;;10.20;99.90;;;;;;5050514;28;20682;-61
2022/12/29 09:51:01;;;;;;;6.00;0.85;;;10.10;99.90;;;;;;5050978;28;20082;-61
2022/12/29 09:53:35;;;;;;;;;;;10.00;99.90;;;;;;5051149;28;20040;-61
2022/12/29 09:56:01;;;;;;;10.57;1.15;;;10.00;99.90;;;;;;5050748;28;19905;-61
2022/12/29 09:58:39;;;;;;;8.90;1.33;;;9.90;99.90;;;;;;5050863;28;20036;-61
2022/12/29 10:01:21;;;;;;;10.98;1.15;;;9.70;99.90;;;;;;5049730;28;20064;-61
2022/12/29 10:03:55;;;;;;;12.75;1.50;;;9.60;99.90;;;;;;5050947;28;20032;-61
2022/12/29 10:06:26;;;;;;;7.20;0.80;;;9.50;99.90;;;;;;5031227;28;20055;-61
2022/12/29 10:09:06;;;;;;;8.23;1.10;;;9.40;99.90;;;;;;5043114;28;20459;-61
2022/12/29 10:11:41;;;;;;;7.97;1.45;;;9.30;99.90;;;;;;5050042;28;20060;-61
2022/12/29 10:14:10;;;;;;;6.25;0.98;;;9.20;99.90;;;;;;5020061;28;20112;-61
2022/12/29 10:16:50;;;;;;;7.07;0.93;;;9.20;99.90;;;;;;5052673;28;20120;-61
2022/12/29 10:19:50;;;;;;;9.63;0.98;;;9.20;99.90;;;;;;5047892;28;20060;-61
2022/12/29 10:22:38;;;;;;;5.93;1.20;;;9.10;99.90;;;;;;5046173;28;20369;-60
2022/12/29 10:25:16;;;;;;;10.43;1.30;;;9.10;99.90;;;;;;5046268;28;20029;-61
2022/12/29 10:27:43;;;;;;;8.00;1.02;;;9.10;99.90;;;;;;5047072;28;20065;-61
2022/12/29 10:30:13;;;;;;;7.47;0.90;;;9.10;99.90;;;;;;5048225;28;20055;-61
2022/12/29 10:32:43;;;;;;;8.48;1.20;;;9.10;99.90;;;;;;5048462;28;20044;-61
2022/12/29 10:35:15;;;;;;;;;;;9.10;99.90;;;;;;5050143;28;20100;-60
2022/12/29 10:37:45;;;;;;;;;;;9.10;99.90;;;;;;5052678;28;19909;-60
2022/12/29 10:40:18;;;;;;;;;;;9.10;99.90;;;;;;5052934;28;19916;-60
2022/12/29 10:42:45;;;;;;;;;;;9.00;99.90;;;;;;5041213;28;19949;-60
2022/12/29 10:45:13;;;;;;;;;;;9.00;99.90;;;;;;5052332;28;20000;-60
2022/12/29 10:47:50;;;;;;;;;;;9.10;99.90;;;;;;5052505;28;19908;-61
2022/12/29 10:50:16;;;;;;;;;;;9.10;99.90;;;;;;5033728;28;19912;-60
2022/12/29 10:52:41;;;;;;;;;;;9.20;99.90;;;;;;5052182;28;20003;-60
2022/12/29 10:55:15;;;;;;;;;;;9.20;99.90;;;;;;5033957;28;19909;-60
2022/12/29 10:57:43;;;;;;;;;;;9.30;99.90;;;;;;5051953;28;20260;-60
2022/12/29 11:00:17;;;;;;;;;;;9.40;99.90;;;;;;5052576;28;19917;-60
2022/12/29 11:02:45;;;;;;;;;;;9.80;99.90;;;;;;5052159;28;19908;-61
2022/12/29 11:05:17;;;;;;;;;;;10.20;99.90;;;;;;5049794;28;20272;-60
2022/12/29 11:07:43;;;;;;;;;;;10.30;99.90;;;;;;5052029;28;19909;-61
2022/12/29 11:10:20;;;;;;;;;;;10.60;99.90;;;;;;5051797;28;19954;-60
2022/12/29 11:12:54;;;;;;;;;;;10.60;99.90;;;;;;5051388;28;20410;-61
2022/12/29 11:15:20;;;;;;;;;;;10.70;99.90;;;;;;5051753;28;19905;-61
2022/12/29 11:18:06;;;;;;;;;;;10.70;99.90;;;;;;5051242;28;20019;-61
2022/12/29 11:20:38;;;;;;;;;;;10.70;99.90;;;;;;5051582;28;19947;-61
2022/12/29 11:23:19;;;;;;;;;;;10.80;99.90;;;;;;5051621;28;19963;-61
2022/12/29 11:25:45;;;;;;;;;;;10.80;99.90;;;;;;5051026;28;20424;-61
2022/12/29 11:28:16;;;;;;;;;;;10.80;99.90;;;;;;5051524;28;19904;-61
2022/12/29 11:30:42;;;;;;;;;;;10.70;99.90;;;;;;5052006;28;20031;-61
2022/12/29 11:33:08;;;;;;;;;;;10.80;99.90;;;;;;5051249;28;20447;-61
2022/12/29 11:35:35;;;;;;;;;;;10.90;99.90;;;;;;5051503;28;19909;-61
2022/12/29 11:38:01;;;;;;;;;;;11.20;99.90;;;;;;5052850;28;20413;-61
2022/12/29 11:40:27;;;;;;;;;;;11.20;99.90;;;;;;5045503;28;19954;-61
2022/12/29 11:43:03;;;;;;;;;;;11.30;99.90;;;;;;5052793;28;19905;-61
2022/12/29 11:45:36;;;;;;;;;;;11.40;99.90;;;;;;5038949;28;19905;-61
2022/12/29 11:48:17;;;;;;;;;;;11.40;99.90;;;;;;5050885;28;20368;-61
2022/12/29 11:50:48;;;;;;;;;;;11.30;99.90;;;;;;5050514;28;19908;-61
2022/12/29 11:53:17;;;;;;;;;;;11.90;99.90;;;;;;5051486;28;19912;-61
2022/12/29 11:56:02;;;;;;;;;;;12.50;99.90;;;;;;5031421;28;19912;-63
2022/12/29 11:58:32;;;;;;;;;;;13.00;99.90;;;;;;5051625;28;19966;-61
2022/12/29 12:01:00;;;;;;;;;;;13.70;99.90;;;;;;5050055;28;19966;-61
2022/12/29 12:03:27;;;;;;;;;;;13.80;99.90;;;;;;5051573;28;19905;-61
2022/12/29 12:05:55;;;;;;;;;;;13.80;99.90;;;;;;5050642;28;19909;-61
2022/12/29 12:08:36;;;;;;;;;;;14.30;99.90;;;;;;5051017;28;19999;-62
2022/12/29 12:11:06;;;;;;;;;;;14.70;99.90;;;;;;5051574;28;19919;-62
2022/12/29 12:13:35;;;;;;;;;;;14.60;98.70;;;;;;5050954;28;19941;-62
2022/12/29 12:16:07;;;;;;;;;;;14.50;97.90;;;;;;5050774;28;19905;-62
2022/12/29 12:18:49;;;;;;;;;;;14.20;97.60;;;;;;5049677;28;19909;-62
2022/12/29 12:21:20;;;;;;;;;;;14.20;98.20;;;;;;5049163;28;19909;-62
2022/12/29 12:24:05;;;;;;;;;;;14.40;97.80;;;;;;5047262;28;19923;-62
2022/12/29 12:26:48;;;;;;;;;;;14.40;96.70;;;;;;5065264;28;19951;-62
2022/12/29 12:29:22;;;;;;;;;;;14.80;96.90;;;;;;5048599;28;19915;-62
2022/12/29 12:31:47;;;;;;;;;;;14.60;95.20;;;;;;5027575;28;19913;-62
2022/12/29 12:34:48;;;;;;;;;;;13.90;95.80;;;;;;5050661;28;19912;-62
2022/12/29 12:37:13;;;;;;;;;;;13.40;97.30;;;;;;5013352;28;19917;-62
2022/12/29 12:39:45;;;;;;;;;;;13.70;98.60;;;;;;5041367;28;19916;-62
2022/12/29 12:42:11;;;;;;;;;;;14.10;98.20;;;;;;5031762;28;20058;-61
2022/12/29 12:44:55;;;;;;;;;;;14.20;97.40;;;;;;5050638;28;20348;-62
2022/12/29 12:47:37;;;;;;;;;;;13.80;97.40;;;;;;5048343;28;19912;-62
2022/12/29 12:50:03;;;;;;;;;;;13.30;98.00;;;;;;5049356;28;19909;-62
2022/12/29 12:52:36;;;;;;;;;;;12.80;99.10;;;;;;5050255;28;20296;-62
2022/12/29 12:55:11;;;;;;;;;;;12.50;99.90;;;;;;5049334;28;20403;-62
2022/12/29 12:57:36;;;;;;;;;;;12.40;99.90;;;;;;5049523;28;20292;-62
2022/12/29 13:00:05;;;;;;;;;;;12.40;99.90;;;;;;5049279;28;20372;-62
2022/12/29 13:02:46;;;;;;;;;;;12.40;99.90;;;;;;5047797;28;19992;-62
2022/12/29 13:05:28;;;;;;;;;;;12.60;99.90;;;;;;5031853;28;19905;-62
2022/12/29 13:07:54;;;;;;;;;;;12.60;99.90;;;;;;5049413;28;19909;-61
2022/12/29 13:10:19;;;;;;;;;;;12.40;99.90;;;;;;5049876;28;19912;-61
2022/12/29 13:12:51;;;;;;;;;;;12.20;99.90;;;;;;5049393;28;20283;-62
2022/12/29 13:15:16;;;;;;;;;;;12.00;99.90;;;;;;5031975;28;19904;-61
2022/12/29 13:17:57;;;;;;;;;;;11.90;99.90;;;;;;5049948;28;19927;-62
2022/12/29 13:20:46;;;;;;;;;;;11.80;99.90;;;;;;5049356;28;19920;-62
2022/12/29 13:23:17;;;;;;;;;;;11.70;99.90;;;;;;5046420;28;19917;-61
2022/12/29 13:26:09;;;;;;;;;;;11.60;99.90;;;;;;5054382;28;19994;-62
2022/12/29 13:28:46;;;;;;;;;;;11.60;99.90;;;;;;5037540;28;20000;-62
2022/12/29 13:31:29;;;;;;;;;;;11.50;99.90;;;;;;5046699;28;19905;-62
2022/12/29 13:34:00;;;;;;;;;;;11.40;99.90;;;;;;5028810;28;19905;-61
2022/12/29 13:36:30;;;;;;;;;;;11.40;99.90;;;;;;5042578;28;19912;-62
2022/12/29 13:39:09;;;;;;;;;;;11.40;99.90;;;;;;5028628;28;19909;-61
2022/12/29 13:41:41;;;;;;;;;;;11.30;99.90;;;;;;5034453;28;19964;-61
2022/12/29 13:44:09;;;;;;;;;;;11.30;99.90;;;;;;5025730;28;19914;-62
2022/12/29 13:46:37;;;;;;;;;;;11.20;99.90;;;;;;5047093;28;20004;-61
2022/12/29 13:49:24;;;;;;;;;;;11.20;99.90;;;;;;5047926;28;19915;-62
2022/12/29 13:51:55;;;;;;;;;;;11.10;99.90;;;;;;5025833;28;19905;-61